Time;durP1;ratioP1;P1;durP2;ratioP2;P2;SDS_P1;SDS_P2;PMS_P1;PMS_P2;Temp;Humidity;BMP_temperature;BMP_pressure;BME280_temperature;BME280_humidity;BME280_pressure;Samples;Min_cycle;Max_cycle;Signal;HPM_P1;HPM_P2
2022/12/17 13:09:27;;;;;;;10.73;4.25;;;;;;;;;;10400539;28;20124;-58
2022/12/17 13:14:43;;;;;;;14.70;4.88;;;;;;;;;;10394139;28;20547;-58
2022/12/17 13:20:00;;;;;;;11.70;4.90;;;;;;;;;;10395964;28;20106;-58
2022/12/17 13:25:21;;;;;;;7.57;4.07;;;;;;;;;;10390305;28;20458;-58
2022/12/17 13:30:36;;;;;;;6.68;4.18;;;;;;;;;;10400766;28;20480;-58
2022/12/17 13:36:13;;;;;;;12.57;4.88;;;;;;;;;;10410891;28;20136;-58
2022/12/17 13:41:15;;;;;;;8.40;4.75;;;;;;;;;;10402928;28;20026;-58
2022/12/17 13:46:44;;;;;;;11.10;4.95;;;;;;;;;;10378028;28;20036;-58
2022/12/17 13:51:47;;;;;;;12.70;4.55;;;;;;;;;;10403830;28;20368;-59
2022/12/17 13:56:48;;;;;;;6.95;4.10;;;;;;;;;;10386476;28;20033;-58
2022/12/17 14:01:52;;;;;;;12.70;5.18;;;;;;;;;;10409114;28;20029;-58
2022/12/17 14:06:59;;;;;;;9.52;4.20;;;;;;;;;;10411856;28;20422;-58
2022/12/17 14:12:22;;;;;;;6.75;3.92;;;;;;;;;;10410661;28;20420;-58
2022/12/17 14:17:26;;;;;;;9.50;4.13;;;;;;;;;;10399288;28;20041;-58
2022/12/17 14:22:40;;;;;;;10.07;3.97;;;;;;;;;;10401993;28;20124;-58
2022/12/17 14:27:54;;;;;;;9.43;4.35;;;;;;;;;;10403866;28;20097;-58
2022/12/17 14:32:54;;;;;;;9.50;3.88;;;;;;;;;;10400705;28;20117;-59
2022/12/17 14:37:55;;;;;;;9.75;4.10;;;;;;;;;;10399105;28;20045;-58
2022/12/17 14:43:00;;;;;;;6.88;3.70;;;;;;;;;;10405681;28;20060;-58
2022/12/17 14:48:05;;;;;;;11.13;3.70;;;;;;;;;;10403232;28;20034;-58
2022/12/17 14:53:26;;;;;;;10.60;4.18;;;;;;;;;;10389484;28;20030;-58
2022/12/17 14:58:27;;;;;;;6.85;3.65;;;;;;;;;;10400019;28;20071;-58
2022/12/17 15:03:31;;;;;;;10.15;3.50;;;;;;;;;;10406210;28;20034;-58
2022/12/17 15:08:40;;;;;;;8.93;3.88;;;;;;;;;;10405606;28;20025;-59
2022/12/17 15:13:41;;;;;;;10.15;3.70;;;;;;;;;;10398302;28;20080;-59
2022/12/17 15:18:42;;;;;;;6.15;3.25;;;;;;;;;;10405247;28;20039;-59
2022/12/17 15:23:44;;;;;;;5.97;3.47;;;;;;;;;;10401123;28;20342;-58
2022/12/17 15:28:44;;;;;;;7.85;3.38;;;;;;;;;;10371656;22;20050;-61
2022/12/17 15:33:45;;;;;;;10.68;3.25;;;;;;;;;;10365469;28;20622;-60
2022/12/17 15:38:46;;;;;;;8.80;3.38;;;;;;;;;;10350653;28;20026;-60
2022/12/17 15:43:46;;;;;;;10.68;3.72;;;;;;;;;;10332580;28;20277;-61
2022/12/17 15:48:47;;;;;;;8.02;3.33;;;;;;;;;;10359326;28;20037;-60
2022/12/17 15:53:49;;;;;;;8.77;3.00;;;;;;;;;;10359579;28;20370;-60
2022/12/17 15:58:50;;;;;;;7.05;3.40;;;;;;;;;;10360238;28;20042;-60
2022/12/17 16:03:50;;;;;;;7.88;3.28;;;;;;;;;;10365433;28;20037;-60
2022/12/17 16:08:52;;;;;;;6.45;3.60;;;;;;;;;;10365118;28;20512;-60
2022/12/17 16:13:54;;;;;;;7.55;3.40;;;;;;;;;;10356328;28;20029;-60
2022/12/17 16:18:55;;;;;;;11.05;3.63;;;;;;;;;;10348353;28;20397;-60
2022/12/17 16:23:55;;;;;;;13.68;3.28;;;;;;;;;;10351994;28;20276;-61
2022/12/17 16:28:57;;;;;;;12.50;3.60;;;;;;;;;;10367482;28;20052;-61
2022/12/17 16:33:58;;;;;;;8.10;3.53;;;;;;;;;;10356998;28;20121;-61
2022/12/17 16:38:58;;;;;;;8.95;3.65;;;;;;;;;;10362465;28;20022;-61
2022/12/17 16:43:59;;;;;;;8.63;3.70;;;;;;;;;;10347333;28;20022;-61
2022/12/17 16:49:06;;;;;;;11.30;3.85;;;;;;;;;;10335592;28;20022;-60
2022/12/17 16:54:15;;;;;;;10.88;3.50;;;;;;;;;;10356292;28;20129;-60
2022/12/17 16:59:17;;;;;;;11.80;3.50;;;;;;;;;;10375490;28;20030;-61
2022/12/17 17:04:21;;;;;;;9.38;3.60;;;;;;;;;;10364320;28;20029;-61
2022/12/17 17:09:23;;;;;;;10.02;3.20;;;;;;;;;;10363700;28;20409;-61
2022/12/17 17:14:25;;;;;;;4.63;3.25;;;;;;;;;;10365619;28;20100;-61
2022/12/17 17:19:25;;;;;;;9.25;3.60;;;;;;;;;;10353015;28;20096;-60
2022/12/17 17:24:26;;;;;;;7.78;4.20;;;;;;;;;;10370344;28;20572;-60
2022/12/17 17:29:31;;;;;;;7.00;3.30;;;;;;;;;;10356826;28;20505;-62
2022/12/17 17:34:32;;;;;;;7.03;3.13;;;;;;;;;;10364073;28;20034;-62
2022/12/17 17:39:33;;;;;;;4.85;3.00;;;;;;;;;;10366588;28;20386;-64
2022/12/17 17:44:33;;;;;;;9.60;3.40;;;;;;;;;;10350295;28;20063;-65
2022/12/17 17:49:34;;;;;;;8.98;3.40;;;;;;;;;;10339076;28;20069;-64
2022/12/17 17:54:35;;;;;;;10.57;3.53;;;;;;;;;;10350655;28;20038;-60
2022/12/17 17:59:38;;;;;;;8.50;3.00;;;;;;;;;;10363558;28;20512;-60
2022/12/17 18:04:38;;;;;;;7.07;2.90;;;;;;;;;;10360516;28;20036;-59
2022/12/17 18:09:39;;;;;;;7.88;2.80;;;;;;;;;;10359430;28;20084;-60
2022/12/17 18:14:40;;;;;;;9.80;2.70;;;;;;;;;;10353675;28;20034;-60
2022/12/17 18:19:41;;;;;;;4.80;2.80;;;;;;;;;;10350832;28;20030;-58
2022/12/17 18:24:41;;;;;;;4.22;2.95;;;;;;;;;;10360300;28;20049;-60
2022/12/17 18:29:42;;;;;;;7.00;2.88;;;;;;;;;;10365744;28;20397;-58
2022/12/17 18:34:42;;;;;;;4.45;2.65;;;;;;;;;;10339501;28;20781;-57
2022/12/17 18:39:43;;;;;;;13.70;3.08;;;;;;;;;;10355718;28;20246;-57
2022/12/17 18:44:43;;;;;;;7.05;2.72;;;;;;;;;;10355467;28;20030;-56
2022/12/17 18:49:44;;;;;;;5.72;3.17;;;;;;;;;;10357607;28;20026;-53
2022/12/17 18:54:44;;;;;;;5.68;3.10;;;;;;;;;;10353125;28;20037;-55
2022/12/17 18:59:45;;;;;;;6.70;3.00;;;;;;;;;;10348926;28;20030;-55
2022/12/17 19:04:46;;;;;;;5.82;2.78;;;;;;;;;;10338735;28;20038;-51
2022/12/17 19:09:46;;;;;;;4.88;3.03;;;;;;;;;;10343813;28;20105;-57
2022/12/17 19:14:47;;;;;;;3.30;2.53;;;;;;;;;;10340306;28;20041;-52
2022/12/17 19:19:47;;;;;;;10.52;3.03;;;;;;;;;;10355161;28;20048;-56
2022/12/17 19:24:48;;;;;;;5.18;2.72;;;;;;;;;;10354318;28;20026;-56
2022/12/17 19:29:48;;;;;;;5.50;3.03;;;;;;;;;;10355478;28;20390;-57
2022/12/17 19:34:49;;;;;;;7.97;2.92;;;;;;;;;;10348555;28;20087;-57
2022/12/17 19:39:50;;;;;;;4.68;2.85;;;;;;;;;;10339753;28;20069;-57
2022/12/17 19:44:54;;;;;;;7.03;2.33;;;;;;;;;;10342440;28;20037;-56
2022/12/17 19:49:54;;;;;;;9.43;2.75;;;;;;;;;;10352103;28;20018;-58
2022/12/17 19:54:56;;;;;;;3.88;2.72;;;;;;;;;;10343256;28;20475;-57
2022/12/17 19:59:57;;;;;;;3.75;2.20;;;;;;;;;;10346818;28;20109;-54
2022/12/17 20:04:57;;;;;;;6.78;2.45;;;;;;;;;;10345420;28;20042;-59
2022/12/17 20:09:58;;;;;;;8.48;2.90;;;;;;;;;;10360856;28;20026;-54
2022/12/17 20:14:58;;;;;;;10.23;2.88;;;;;;;;;;10355970;28;20611;-55
2022/12/17 20:19:59;;;;;;;8.38;2.65;;;;;;;;;;10343649;28;20358;-54
2022/12/17 20:25:03;;;;;;;9.20;2.70;;;;;;;;;;10348904;28;20061;-55
2022/12/17 20:30:05;;;;;;;8.23;2.90;;;;;;;;;;10352290;28;20050;-62
2022/12/17 20:35:07;;;;;;;17.52;3.58;;;;;;;;;;10340277;28;20062;-56
2022/12/17 20:40:08;;;;;;;14.90;3.47;;;;;;;;;;10348232;28;20394;-56
2022/12/17 20:45:09;;;;;;;16.17;4.00;;;;;;;;;;10347743;28;20477;-54
2022/12/17 20:50:10;;;;;;;32.47;6.05;;;;;;;;;;10358198;28;20483;-61
2022/12/17 20:55:10;;;;;;;25.20;4.88;;;;;;;;;;10354596;28;20080;-60
2022/12/17 21:00:11;;;;;;;22.20;4.57;;;;;;;;;;10373421;28;20269;-51
2022/12/17 21:05:12;;;;;;;27.75;4.20;;;;;;;;;;10369837;28;20025;-48
2022/12/17 21:10:13;;;;;;;14.90;4.25;;;;;;;;;;10365157;28;20033;-49
2022/12/17 21:15:13;;;;;;;19.17;4.20;;;;;;;;;;10377278;28;20559;-49
2022/12/17 21:20:14;;;;;;;18.02;3.85;;;;;;;;;;10364844;28;20076;-49
2022/12/17 21:25:15;;;;;;;12.05;3.70;;;;;;;;;;10376753;28;20046;-60
2022/12/17 21:30:15;;;;;;;17.15;3.53;;;;;;;;;;10377413;28;20130;-51
2022/12/17 21:35:16;;;;;;;14.30;3.55;;;;;;;;;;10367768;28;20061;-50
2022/12/17 21:40:17;;;;;;;12.07;4.05;;;;;;;;;;10356434;28;20095;-49
2022/12/17 21:45:17;;;;;;;10.35;3.75;;;;;;;;;;10369140;28;20463;-49
2022/12/17 21:50:18;;;;;;;11.25;3.45;;;;;;;;;;10348323;28;20014;-50
2022/12/17 21:55:18;;;;;;;11.55;3.20;;;;;;;;;;10374127;28;20034;-51
2022/12/17 22:00:19;;;;;;;9.57;3.05;;;;;;;;;;10357785;28;20520;-50
2022/12/17 22:05:20;;;;;;;7.18;2.45;;;;;;;;;;10378336;28;20117;-50
2022/12/17 22:10:20;;;;;;;5.32;2.95;;;;;;;;;;10366749;28;20552;-50
2022/12/17 22:15:22;;;;;;;8.13;2.90;;;;;;;;;;10340770;28;20037;-49
2022/12/17 22:20:22;;;;;;;4.63;2.50;;;;;;;;;;10340587;28;20022;-48
2022/12/17 22:25:23;;;;;;;5.28;2.80;;;;;;;;;;10369085;28;20038;-48
2022/12/17 22:35:45;;;;;;;10.80;3.17;;;;;;;;;;10359835;28;20112;-47
2022/12/17 22:40:45;;;;;;;13.80;3.92;;;;;;;;;;10356909;28;20038;-51
2022/12/17 22:45:46;;;;;;;9.18;2.78;;;;;;;;;;10375139;28;20022;-51
2022/12/17 22:50:46;;;;;;;14.35;3.10;;;;;;;;;;10350151;28;20022;-50
2022/12/17 22:55:48;;;;;;;7.72;2.92;;;;;;;;;;10359349;28;20065;-49
2022/12/17 23:00:48;;;;;;;14.18;3.22;;;;;;;;;;10360686;28;20076;-51
2022/12/17 23:05:49;;;;;;;13.18;3.40;;;;;;;;;;10363108;28;20030;-57
2022/12/17 23:10:50;;;;;;;9.05;3.08;;;;;;;;;;10361635;28;20297;-50
2022/12/17 23:15:55;;;;;;;13.60;3.50;;;;;;;;;;10354483;28;20054;-53
2022/12/17 23:20:55;;;;;;;6.53;2.60;;;;;;;;;;10352080;28;20041;-52
2022/12/17 23:25:56;;;;;;;7.20;3.20;;;;;;;;;;10363958;28;20046;-52
2022/12/17 23:30:57;;;;;;;11.15;3.00;;;;;;;;;;10353662;28;20049;-54
2022/12/17 23:36:07;;;;;;;3.88;2.53;;;;;;;;;;10341858;28;20091;-55
2022/12/17 23:41:21;;;;;;;7.45;3.08;;;;;;;;;;10348644;28;20100;-48
2022/12/17 23:46:24;;;;;;;5.97;2.90;;;;;;;;;;10342066;28;20374;-48
2022/12/17 23:51:25;;;;;;;6.60;3.03;;;;;;;;;;10343239;28;20044;-52
2022/12/17 23:56:27;;;;;;;5.15;2.50;;;;;;;;;;10363385;28;20516;-51
